sensor_id;sensor_type;location;lat;lon;timestamp;pressure;altitude;pressure_sealevel;temperature;humidity
48774;BME280;34576;0.000;0.000;2024-03-08T00:02:52;96299.91;;;16.63;61.83
48774;BME280;34576;0.000;0.000;2024-03-08T00:09:54;96291.16;;;16.57;62.06
48774;BME280;34576;0.000;0.000;2024-03-08T00:16:54;96285.06;;;16.56;61.71
48774;BME280;34576;0.000;0.000;2024-03-08T00:23:54;96272.84;;;16.55;61.76
48774;BME280;34576;0.000;0.000;2024-03-08T00:30:55;96272.06;;;16.55;61.40
48774;BME280;34576;0.000;0.000;2024-03-08T00:37:55;96271.25;;;16.54;61.56
48774;BME280;34576;0.000;0.000;2024-03-08T00:44:56;96257.47;;;16.58;61.83
48774;BME280;34576;0.000;0.000;2024-03-08T00:51:58;96256.63;;;16.62;62.05
48774;BME280;34576;0.000;0.000;2024-03-08T00:58:58;96244.66;;;16.65;62.54
48774;BME280;34576;0.000;0.000;2024-03-08T01:05:59;96232.44;;;16.64;62.11
48774;BME280;34576;0.000;0.000;2024-03-08T01:13:01;96227.13;;;16.64;61.80
48774;BME280;34576;0.000;0.000;2024-03-08T01:20:01;96217.06;;;16.61;61.44
48774;BME280;34576;0.000;0.000;2024-03-08T01:27:02;96216.50;;;16.64;61.89
48774;BME280;34576;0.000;0.000;2024-03-08T01:34:03;96206.94;;;16.63;62.00
48774;BME280;34576;0.000;0.000;2024-03-08T01:41:03;96196.63;;;16.61;61.86
48774;BME280;34576;0.000;0.000;2024-03-08T01:48:04;96192.38;;;16.60;62.01
48774;BME280;34576;0.000;0.000;2024-03-08T01:55:04;96180.69;;;16.61;61.88
48774;BME280;34576;0.000;0.000;2024-03-08T02:02:07;96174.59;;;16.61;61.94
48774;BME280;34576;0.000;0.000;2024-03-08T02:09:09;96173.53;;;16.62;61.99
48774;BME280;34576;0.000;0.000;2024-03-08T02:16:10;96167.13;;;16.63;62.08
48774;BME280;34576;0.000;0.000;2024-03-08T02:23:10;96158.38;;;16.62;62.28
48774;BME280;34576;0.000;0.000;2024-03-08T02:30:11;96162.63;;;16.63;62.25
48774;BME280;34576;0.000;0.000;2024-03-08T02:37:12;96154.66;;;16.63;62.50
48774;BME280;34576;0.000;0.000;2024-03-08T02:44:12;96141.03;;;16.70;62.07
48774;BME280;34576;0.000;0.000;2024-03-08T02:51:13;96127.84;;;16.60;62.31
48774;BME280;34576;0.000;0.000;2024-03-08T02:58:13;96114.00;;;16.63;62.09
48774;BME280;34576;0.000;0.000;2024-03-08T03:05:14;96105.25;;;16.62;62.08
48774;BME280;34576;0.000;0.000;2024-03-08T03:12:14;96103.38;;;16.63;62.81
48774;BME280;34576;0.000;0.000;2024-03-08T03:19:16;96098.66;;;16.60;62.51
48774;BME280;34576;0.000;0.000;2024-03-08T03:26:16;96093.34;;;16.60;62.54
48774;BME280;34576;0.000;0.000;2024-03-08T03:33:17;96089.63;;;16.61;62.37
48774;BME280;34576;0.000;0.000;2024-03-08T03:40:17;96095.13;;;16.64;62.90
48774;BME280;34576;0.000;0.000;2024-03-08T03:47:19;96092.47;;;16.64;63.42
48774;BME280;34576;0.000;0.000;2024-03-08T03:54:20;96083.25;;;16.62;63.25
48774;BME280;34576;0.000;0.000;2024-03-08T04:01:20;96075.72;;;16.69;62.53
48774;BME280;34576;0.000;0.000;2024-03-08T04:08:20;96083.06;;;16.77;62.07
48774;BME280;34576;0.000;0.000;2024-03-08T04:15:20;96074.63;;;16.70;61.97
48774;BME280;34576;0.000;0.000;2024-03-08T04:22:21;96073.63;;;16.66;62.50
48774;BME280;34576;0.000;0.000;2024-03-08T04:29:21;96073.63;;;16.66;62.32
48774;BME280;34576;0.000;0.000;2024-03-08T04:36:22;96069.00;;;16.77;61.41
48774;BME280;34576;0.000;0.000;2024-03-08T04:43:22;96059.34;;;16.62;62.21
48774;BME280;34576;0.000;0.000;2024-03-08T04:50:25;96062.06;;;16.81;61.64
48774;BME280;34576;0.000;0.000;2024-03-08T04:57:29;96052.22;;;16.81;61.64
48774;BME280;34576;0.000;0.000;2024-03-08T05:04:29;96045.09;;;16.77;62.10
48774;BME280;34576;0.000;0.000;2024-03-08T05:11:29;96046.16;;;16.76;62.52
48774;BME280;34576;0.000;0.000;2024-03-08T05:18:30;96037.97;;;16.72;62.34
48774;BME280;34576;0.000;0.000;2024-03-08T05:25:32;96041.13;;;16.74;62.22
48774;BME280;34576;0.000;0.000;2024-03-08T05:32:32;96057.69;;;13.22;53.44
48774;BME280;34576;0.000;0.000;2024-03-08T05:39:32;96057.56;;;11.78;51.04
48774;BME280;34576;0.000;0.000;2024-03-08T05:46:33;96060.75;;;11.03;49.78
48774;BME280;34576;0.000;0.000;2024-03-08T05:53:33;96061.50;;;10.99;49.32
48774;BME280;34576;0.000;0.000;2024-03-08T06:00:34;96059.56;;;13.26;48.17
48774;BME280;34576;0.000;0.000;2024-03-08T06:07:36;96054.59;;;14.84;49.50
48774;BME280;34576;0.000;0.000;2024-03-08T06:14:37;96053.50;;;15.01;51.12
48774;BME280;34576;0.000;0.000;2024-03-08T06:21:37;96051.59;;;15.12;52.36
48774;BME280;34576;0.000;0.000;2024-03-08T06:28:38;96049.72;;;15.17;53.40
48774;BME280;34576;0.000;0.000;2024-03-08T06:35:38;96049.41;;;15.24;54.30
48774;BME280;34576;0.000;0.000;2024-03-08T06:42:39;96029.53;;;15.27;54.87
48774;BME280;34576;0.000;0.000;2024-03-08T06:49:39;96028.50;;;15.28;55.53
48774;BME280;34576;0.000;0.000;2024-03-08T06:56:39;96014.97;;;15.29;56.08
48774;BME280;34576;0.000;0.000;2024-03-08T07:03:43;96006.75;;;15.31;56.17
48774;BME280;34576;0.000;0.000;2024-03-08T07:10:44;96003.00;;;15.32;56.57
48774;BME280;34576;0.000;0.000;2024-03-08T07:17:45;95994.00;;;15.33;56.51
48774;BME280;34576;0.000;0.000;2024-03-08T07:24:46;95987.09;;;15.32;57.09
48774;BME280;34576;0.000;0.000;2024-03-08T07:32:05;95983.41;;;15.33;57.29
48774;BME280;34576;0.000;0.000;2024-03-08T07:39:25;95978.63;;;15.35;57.25
48774;BME280;34576;0.000;0.000;2024-03-08T07:46:26;95974.88;;;15.36;57.34
48774;BME280;34576;0.000;0.000;2024-03-08T07:53:26;95961.13;;;15.34;57.57
48774;BME280;34576;0.000;0.000;2024-03-08T08:00:26;95956.34;;;15.36;57.89
48774;BME280;34576;0.000;0.000;2024-03-08T08:07:27;95959.47;;;15.43;57.48
48774;BME280;34576;0.000;0.000;2024-03-08T08:14:28;95958.19;;;15.41;57.90
48774;BME280;34576;0.000;0.000;2024-03-08T08:21:29;95942.78;;;15.43;57.83
48774;BME280;34576;0.000;0.000;2024-03-08T08:28:29;95950.47;;;15.44;57.76
48774;BME280;34576;0.000;0.000;2024-03-08T08:35:31;95945.16;;;15.44;58.02
48774;BME280;34576;0.000;0.000;2024-03-08T08:42:31;95943.06;;;15.41;58.25
48774;BME280;34576;0.000;0.000;2024-03-08T08:49:32;95935.31;;;15.50;57.96
48774;BME280;34576;0.000;0.000;2024-03-08T08:56:32;95934.75;;;15.53;58.12
48774;BME280;34576;0.000;0.000;2024-03-08T09:03:33;95935.78;;;15.57;57.83
48774;BME280;34576;0.000;0.000;2024-03-08T09:10:34;95930.47;;;15.57;58.08
48774;BME280;34576;0.000;0.000;2024-03-08T09:17:35;95926.22;;;15.61;57.90
48774;BME280;34576;0.000;0.000;2024-03-08T09:24:35;95908.09;;;15.74;57.84
48774;BME280;34576;0.000;0.000;2024-03-08T09:31:35;95909.91;;;15.78;57.92
48774;BME280;34576;0.000;0.000;2024-03-08T09:38:38;95889.75;;;15.77;57.77
48774;BME280;34576;0.000;0.000;2024-03-08T09:45:39;95880.94;;;15.87;57.67
48774;BME280;34576;0.000;0.000;2024-03-08T09:52:41;95873.50;;;15.89;57.72
48774;BME280;34576;0.000;0.000;2024-03-08T09:59:43;95869.47;;;15.92;57.76
48774;BME280;34576;0.000;0.000;2024-03-08T10:06:47;95855.72;;;15.90;57.81
48774;BME280;34576;0.000;0.000;2024-03-08T10:13:47;95850.47;;;15.84;58.17
48774;BME280;34576;0.000;0.000;2024-03-08T10:21:07;95848.41;;;15.76;58.47
48774;BME280;34576;0.000;0.000;2024-03-08T10:28:08;95853.72;;;15.76;58.65
48774;BME280;34576;0.000;0.000;2024-03-08T10:35:09;95843.88;;;15.77;58.80
48774;BME280;34576;0.000;0.000;2024-03-08T10:42:10;95837.28;;;15.79;58.70
48774;BME280;34576;0.000;0.000;2024-03-08T10:49:16;95835.66;;;15.78;58.91
48774;BME280;34576;0.000;0.000;2024-03-08T10:56:17;95830.09;;;15.80;58.83
48774;BME280;34576;0.000;0.000;2024-03-08T11:10:46;95820.00;;;15.82;59.19
48774;BME280;34576;0.000;0.000;2024-03-08T11:17:49;95797.69;;;15.83;58.99
48774;BME280;34576;0.000;0.000;2024-03-08T11:24:50;95785.75;;;15.85;59.18
48774;BME280;34576;0.000;0.000;2024-03-08T11:31:50;95778.56;;;15.86;59.14
48774;BME280;34576;0.000;0.000;2024-03-08T11:38:51;95776.16;;;15.90;59.23
48774;BME280;34576;0.000;0.000;2024-03-08T11:46:07;95771.63;;;15.90;59.34
48774;BME280;34576;0.000;0.000;2024-03-08T11:53:08;95773.72;;;15.93;59.39
48774;BME280;34576;0.000;0.000;2024-03-08T12:00:14;95753.78;;;15.96;59.39
48774;BME280;34576;0.000;0.000;2024-03-08T12:07:21;95749.00;;;15.98;59.54
48774;BME280;34576;0.000;0.000;2024-03-08T12:14:22;95735.47;;;15.99;59.55
48774;BME280;34576;0.000;0.000;2024-03-08T12:21:22;95716.59;;;16.01;59.64
48774;BME280;34576;0.000;0.000;2024-03-08T12:28:25;95696.16;;;16.01;59.79
48774;BME280;34576;0.000;0.000;2024-03-08T12:35:27;95692.94;;;16.04;59.80
48774;BME280;34576;0.000;0.000;2024-03-08T12:42:28;95680.97;;;16.07;59.77
48774;BME280;34576;0.000;0.000;2024-03-08T12:49:28;95658.09;;;16.11;59.85
48774;BME280;34576;0.000;0.000;2024-03-08T12:56:31;95650.66;;;16.13;59.88
48774;BME280;34576;0.000;0.000;2024-03-08T13:03:35;95631.00;;;16.14;59.86
48774;BME280;34576;0.000;0.000;2024-03-08T13:10:36;95623.03;;;16.14;59.88
48774;BME280;34576;0.000;0.000;2024-03-08T13:17:37;95610.28;;;16.16;59.99
48774;BME280;34576;0.000;0.000;2024-03-08T13:24:40;95597.50;;;16.18;60.00
48774;BME280;34576;0.000;0.000;2024-03-08T13:31:41;95593.25;;;16.17;60.15
48774;BME280;34576;0.000;0.000;2024-03-08T13:38:45;95564.59;;;16.19;60.28
48774;BME280;34576;0.000;0.000;2024-03-08T13:45:45;95554.47;;;16.21;60.11
48774;BME280;34576;0.000;0.000;2024-03-08T13:52:46;95543.38;;;16.19;60.34
48774;BME280;34576;0.000;0.000;2024-03-08T13:59:46;95546.78;;;16.20;60.49
48774;BME280;34576;0.000;0.000;2024-03-08T14:06:47;95543.38;;;16.19;60.31
48774;BME280;34576;0.000;0.000;2024-03-08T14:13:49;95543.84;;;16.21;60.45
48774;BME280;34576;0.000;0.000;2024-03-08T14:20:49;95532.94;;;16.23;60.37
48774;BME280;34576;0.000;0.000;2024-03-08T14:27:51;95531.38;;;16.22;60.53
48774;BME280;34576;0.000;0.000;2024-03-08T14:34:58;95525.88;;;16.18;60.68
48774;BME280;34576;0.000;0.000;2024-03-08T14:41:59;95512.31;;;16.20;60.55
48774;BME280;34576;0.000;0.000;2024-03-08T14:49:00;95516.31;;;16.17;60.58
48774;BME280;34576;0.000;0.000;2024-03-08T14:56:00;95522.13;;;16.19;60.76
48774;BME280;34576;0.000;0.000;2024-03-08T15:03:01;95518.97;;;16.17;60.59
48774;BME280;34576;0.000;0.000;2024-03-08T15:10:07;95499.63;;;16.17;60.69
48774;BME280;34576;0.000;0.000;2024-03-08T15:17:10;95507.88;;;16.15;60.74
48774;BME280;34576;0.000;0.000;2024-03-08T15:24:20;95506.81;;;16.16;60.77
48774;BME280;34576;0.000;0.000;2024-03-08T15:31:22;95494.63;;;16.15;60.69
48774;BME280;34576;0.000;0.000;2024-03-08T15:38:25;95475.75;;;16.17;60.75
48774;BME280;34576;0.000;0.000;2024-03-08T15:45:27;95476.53;;;16.17;60.66
48774;BME280;34576;0.000;0.000;2024-03-08T15:52:27;95470.66;;;16.20;60.63
48774;BME280;34576;0.000;0.000;2024-03-08T15:59:28;95458.94;;;16.21;60.67
48774;BME280;34576;0.000;0.000;2024-03-08T16:06:29;95445.19;;;16.19;60.76
48774;BME280;34576;0.000;0.000;2024-03-08T16:13:29;95429.28;;;16.19;60.73
48774;BME280;34576;0.000;0.000;2024-03-08T16:20:30;95419.25;;;16.16;60.68
48774;BME280;34576;0.000;0.000;2024-03-08T16:27:32;95407.84;;;16.16;60.68
48774;BME280;34576;0.000;0.000;2024-03-08T16:34:32;95389.28;;;16.16;60.73
48774;BME280;34576;0.000;0.000;2024-03-08T16:41:35;95400.19;;;16.14;60.91
48774;BME280;34576;0.000;0.000;2024-03-08T16:48:35;95408.72;;;16.11;60.83
48774;BME280;34576;0.000;0.000;2024-03-08T16:55:36;95405.78;;;16.13;60.77
48774;BME280;34576;0.000;0.000;2024-03-08T17:02:38;95401.06;;;16.10;60.82
48774;BME280;34576;0.000;0.000;2024-03-08T17:09:38;95399.47;;;16.09;60.56
48774;BME280;34576;0.000;0.000;2024-03-08T17:16:38;95405.59;;;16.09;60.70
48774;BME280;34576;0.000;0.000;2024-03-08T17:23:42;95399.19;;;16.10;60.58
48774;BME280;34576;0.000;0.000;2024-03-08T17:30:42;95405.88;;;16.08;60.60
48774;BME280;34576;0.000;0.000;2024-03-08T17:37:45;95397.13;;;16.07;60.51
48774;BME280;34576;0.000;0.000;2024-03-08T17:44:46;95400.38;;;16.04;60.23
48774;BME280;34576;0.000;0.000;2024-03-08T17:51:46;95387.09;;;16.04;60.54
48774;BME280;34576;0.000;0.000;2024-03-08T17:58:46;95404.91;;;16.03;60.41
48774;BME280;34576;0.000;0.000;2024-03-08T18:05:47;95405.69;;;16.04;60.39
48774;BME280;34576;0.000;0.000;2024-03-08T18:12:47;95413.94;;;16.02;60.49
48774;BME280;34576;0.000;0.000;2024-03-08T18:19:51;95418.47;;;16.02;60.40
48774;BME280;34576;0.000;0.000;2024-03-08T18:26:52;95438.88;;;16.01;60.49
48774;BME280;34576;0.000;0.000;2024-03-08T18:33:53;95458.25;;;16.02;60.45
48774;BME280;34576;0.000;0.000;2024-03-08T18:40:53;95465.41;;;16.01;60.50
48774;BME280;34576;0.000;0.000;2024-03-08T18:47:54;95462.75;;;16.01;60.37
48774;BME280;34576;0.000;0.000;2024-03-08T18:54:56;95464.63;;;16.01;60.39
48774;BME280;34576;0.000;0.000;2024-03-08T19:01:56;95468.84;;;16.02;60.38
48774;BME280;34576;0.000;0.000;2024-03-08T19:08:59;95469.41;;;15.99;60.33
48774;BME280;34576;0.000;0.000;2024-03-08T19:16:00;95455.06;;;16.00;60.21
48774;BME280;34576;0.000;0.000;2024-03-08T19:23:00;95444.47;;;16.00;60.32
48774;BME280;34576;0.000;0.000;2024-03-08T19:30:01;95442.88;;;15.99;60.28
48774;BME280;34576;0.000;0.000;2024-03-08T19:37:01;95444.47;;;16.00;60.31
48774;BME280;34576;0.000;0.000;2024-03-08T19:44:03;95435.75;;;15.99;60.27
48774;BME280;34576;0.000;0.000;2024-03-08T19:51:07;95444.47;;;16.00;60.29
48774;BME280;34576;0.000;0.000;2024-03-08T19:58:08;95437.03;;;16.02;60.19
48774;BME280;34576;0.000;0.000;2024-03-08T20:05:10;95442.50;;;16.05;60.31
48774;BME280;34576;0.000;0.000;2024-03-08T20:12:16;95442.16;;;16.40;61.59
48774;BME280;34576;0.000;0.000;2024-03-08T20:19:16;95448.25;;;16.27;62.48
48774;BME280;34576;0.000;0.000;2024-03-08T20:26:17;95441.34;;;16.26;63.46
48774;BME280;34576;0.000;0.000;2024-03-08T20:33:19;95451.59;;;16.32;63.57
48774;BME280;34576;0.000;0.000;2024-03-08T20:40:19;95450.69;;;16.37;63.89
48774;BME280;34576;0.000;0.000;2024-03-08T20:47:49;95443.81;;;16.50;63.58
48774;BME280;34576;0.000;0.000;2024-03-08T20:54:49;95443.44;;;16.56;63.29
48774;BME280;34576;0.000;0.000;2024-03-08T21:01:49;95458.47;;;16.61;63.48
48774;BME280;34576;0.000;0.000;2024-03-08T21:08:51;95464.47;;;16.67;63.69
48774;BME280;34576;0.000;0.000;2024-03-08T21:15:52;95471.84;;;16.70;64.19
48774;BME280;34576;0.000;0.000;2024-03-08T21:22:52;95475.47;;;16.74;64.48
48774;BME280;34576;0.000;0.000;2024-03-08T21:29:53;95470.69;;;16.76;64.65
48774;BME280;34576;0.000;0.000;2024-03-08T21:36:53;95468.50;;;16.78;64.88
48774;BME280;34576;0.000;0.000;2024-03-08T21:43:53;95474.59;;;16.79;64.89
48774;BME280;34576;0.000;0.000;2024-03-08T21:50:54;95473.81;;;16.78;65.42
48774;BME280;34576;0.000;0.000;2024-03-08T21:57:55;95484.81;;;16.85;65.42
48774;BME280;34576;0.000;0.000;2024-03-08T22:04:55;95482.28;;;16.80;65.40
48774;BME280;34576;0.000;0.000;2024-03-08T22:11:56;95508.25;;;16.83;65.38
48774;BME280;34576;0.000;0.000;2024-03-08T22:18:57;95511.19;;;16.82;65.49
48774;BME280;34576;0.000;0.000;2024-03-08T22:25:57;95504.50;;;16.84;65.66
48774;BME280;34576;0.000;0.000;2024-03-08T22:32:58;95502.13;;;16.83;66.10
48774;BME280;34576;0.000;0.000;2024-03-08T22:39:58;95512.75;;;16.83;66.08
48774;BME280;34576;0.000;0.000;2024-03-08T22:47:00;95523.03;;;16.89;65.85
48774;BME280;34576;0.000;0.000;2024-03-08T22:54:00;95533.22;;;17.10;64.62
48774;BME280;34576;0.000;0.000;2024-03-08T23:01:00;95534.94;;;16.92;65.92
48774;BME280;34576;0.000;0.000;2024-03-08T23:08:05;95536.00;;;16.91;66.13
48774;BME280;34576;0.000;0.000;2024-03-08T23:15:06;95548.22;;;16.92;66.59
48774;BME280;34576;0.000;0.000;2024-03-08T23:22:10;95549.50;;;16.95;67.27
48774;BME280;34576;0.000;0.000;2024-03-08T23:29:12;95542.78;;;16.97;67.37
48774;BME280;34576;0.000;0.000;2024-03-08T23:36:12;95541.41;;;17.00;67.58
48774;BME280;34576;0.000;0.000;2024-03-08T23:43:12;95553.13;;;16.99;68.03
48774;BME280;34576;0.000;0.000;2024-03-08T23:50:13;95548.31;;;17.01;68.25
48774;BME280;34576;0.000;0.000;2024-03-08T23:57:17;95546.13;;;17.03;68.27
